Trelew/Rawson, Argentina
Current Conditions -  °F | °C
As of 3:00 AM on Wednesday 26 Nov 2014 (Local Time) from SAVC Reporting Station
Clear Clear  
Wind Chill: 55°   Ceiling: Unl
Heat Index: 55°   Visibility: 6mi
Dew Point: 34°   Wind: 18mph
Humidity: 44%   Direction: 270°W
Pressure: 29.8"   Gusts: NA
Location:  43.2°S, 65.27°W
Report Text: SAVC 260600Z 27016KT CAVOK 13/01 Q1009
Loading
Personal Weather Stations






























Interactive Weather Map New forecast layout! Learn more

10-Day Weather Forecast

Advertisements
Track Severe Weather on mobile